Time;durP1;ratioP1;P1;durP2;ratioP2;P2;SDS_P1;SDS_P2;PMS_P1;PMS_P2;Temp;Humidity;BMP_temperature;BMP_pressure;BME280_temperature;BME280_humidity;BME280_pressure;Samples;Min_cycle;Max_cycle;Signal;HPM_P1;HPM_P2
2022/01/31 00:02:11;;;;;;;16.98;5.32;;;5.50;99.90;;;;;;4880626;29;20386;-82
2022/01/31 00:04:36;;;;;;;18.10;5.13;;;5.20;99.90;;;;;;4880838;29;20406;-82
2022/01/31 00:07:03;;;;;;;22.45;5.88;;;5.80;99.90;;;;;;4870337;29;20132;-82
2022/01/31 00:09:29;;;;;;;27.13;5.88;;;5.10;99.90;;;;;;4846724;29;20405;-82
2022/01/31 00:12:00;;;;;;;20.23;6.13;;;6.40;99.90;;;;;;4882986;29;20485;-82
2022/01/31 00:14:34;;;;;;;20.42;7.15;;;5.60;99.90;;;;;;4887561;29;20119;-82
2022/01/31 00:17:01;;;;;;;14.38;5.35;;;6.50;99.90;;;;;;4883562;29;20555;-82
2022/01/31 00:19:26;;;;;;;16.42;6.07;;;6.20;99.90;;;;;;4868356;29;20052;-82
2022/01/31 00:21:52;;;;;;;20.73;6.50;;;4.60;99.90;;;;;;4864751;29;20048;-82
2022/01/31 00:24:18;;;;;;;14.10;6.13;;;5.80;99.90;;;;;;4880261;29;20048;-82
2022/01/31 00:26:44;;;;;;;18.80;6.22;;;5.60;99.90;;;;;;4865114;29;20107;-82
2022/01/31 00:29:10;;;;;;;19.30;6.18;;;7.30;99.90;;;;;;4877126;29;20418;-82
2022/01/31 00:31:35;;;;;;;21.10;6.78;;;6.50;99.90;;;;;;4862410;29;20052;-82
2022/01/31 00:34:01;;;;;;;21.45;7.47;;;6.10;99.90;;;;;;4865203;29;20100;-82
2022/01/31 00:36:27;;;;;;;22.30;6.93;;;4.90;99.90;;;;;;4865638;29;20067;-82
2022/01/31 00:38:52;;;;;;;23.75;6.35;;;5.20;99.90;;;;;;4867094;29;20045;-82
2022/01/31 00:41:18;;;;;;;26.55;6.40;;;6.30;99.90;;;;;;4884040;29;20052;-82
2022/01/31 00:43:55;;;;;;;22.08;6.03;;;7.80;99.90;;;;;;4883741;29;20044;-82
2022/01/31 00:46:26;;;;;;;19.23;5.85;;;5.70;99.90;;;;;;4884039;29;20048;-82
2022/01/31 00:48:51;;;;;;;18.20;5.40;;;5.50;99.90;;;;;;4890667;29;20502;-82
2022/01/31 00:51:17;;;;;;;19.27;3.95;;;5.20;99.90;;;;;;4877908;29;20049;-82
2022/01/31 00:53:43;;;;;;;12.55;4.40;;;6.20;99.90;;;;;;4883536;29;20132;-82
2022/01/31 00:56:09;;;;;;;18.75;4.22;;;7.10;99.90;;;;;;4887007;29;20055;-82
2022/01/31 00:58:35;;;;;;;17.55;3.60;;;3.90;99.90;;;;;;4890987;29;20048;-83
2022/01/31 01:01:01;;;;;;;12.35;2.97;;;6.60;99.90;;;;;;4880163;29;20060;-82
2022/01/31 01:03:26;;;;;;;9.55;2.35;;;6.60;99.90;;;;;;4877509;29;20051;-82
2022/01/31 01:05:53;;;;;;;7.25;2.13;;;3.80;99.90;;;;;;4897807;29;20089;-83
2022/01/31 01:08:19;;;;;;;17.85;1.80;;;4.30;99.90;;;;;;4888246;29;20458;-83
2022/01/31 01:10:45;;;;;;;10.40;2.83;;;6.60;99.90;;;;;;4891308;29;20052;-82
2022/01/31 01:13:11;;;;;;;16.52;2.72;;;5.00;99.90;;;;;;4861856;29;20488;-82
2022/01/31 01:15:37;;;;;;;8.18;2.10;;;6.90;99.90;;;;;;4895072;29;20060;-83
2022/01/31 01:18:02;;;;;;;7.50;2.38;;;5.70;99.90;;;;;;4895056;29;20176;-83
2022/01/31 01:20:29;;;;;;;12.55;2.58;;;5.20;99.90;;;;;;4871381;29;20100;-83
2022/01/31 01:22:55;;;;;;;5.25;1.88;;;6.50;99.90;;;;;;4871721;29;20048;-83
2022/01/31 01:25:21;;;;;;;7.35;2.25;;;4.00;99.90;;;;;;4886688;29;20470;-83
2022/01/31 01:27:50;;;;;;;4.90;1.80;;;3.80;99.90;;;;;;4895461;29;20055;-83
2022/01/31 01:30:16;;;;;;;9.80;1.95;;;6.30;99.90;;;;;;4879086;29;20053;-83
2022/01/31 01:33:04;;;;;;;3.95;2.40;;;3.80;99.90;;;;;;4882726;29;20059;-83
2022/01/31 01:35:33;;;;;;;9.48;1.98;;;5.20;99.90;;;;;;4882608;29;20053;-83
2022/01/31 01:38:05;;;;;;;6.45;2.08;;;6.40;99.90;;;;;;4882797;29;20135;-83
2022/01/31 01:40:33;;;;;;;12.63;2.90;;;4.70;99.90;;;;;;4898801;29;20052;-83
2022/01/31 01:42:59;;;;;;;9.70;2.40;;;7.00;99.90;;;;;;4897627;29;20044;-83
2022/01/31 01:45:25;;;;;;;239.50;14.13;;;6.00;99.90;;;;;;4860285;29;20041;-84
2022/01/31 01:47:51;;;;;;;9.13;2.70;;;7.60;99.90;;;;;;4864162;29;20214;-83
2022/01/31 01:50:16;;;;;;;30.67;3.75;;;4.70;99.90;;;;;;4864584;29;20405;-84
2022/01/31 01:52:42;;;;;;;12.68;3.38;;;5.30;99.90;;;;;;4864024;29;20516;-84
2022/01/31 01:55:08;;;;;;;13.68;3.22;;;7.80;99.90;;;;;;4882847;29;20066;-84
2022/01/31 01:57:34;;;;;;;14.07;3.50;;;6.10;99.90;;;;;;4882698;29;20052;-84
2022/01/31 02:00:00;;;;;;;10.18;2.33;;;7.20;99.90;;;;;;4882784;29;20556;-84
2022/01/31 02:02:26;;;;;;;18.42;3.47;;;4.40;99.90;;;;;;4882332;29;20091;-84
2022/01/31 02:04:52;;;;;;;31.55;4.97;;;6.40;99.90;;;;;;4867470;29;20044;-84
2022/01/31 02:07:19;;;;;;;46.22;6.55;;;5.00;99.90;;;;;;4882500;29;20091;-83
2022/01/31 02:09:53;;;;;;;40.53;6.47;;;5.60;99.90;;;;;;4882677;29;20401;-84
2022/01/31 02:12:18;;;;;;;25.45;4.78;;;6.50;99.90;;;;;;4882343;29;20497;-84
2022/01/31 02:14:44;;;;;;;30.15;5.55;;;6.60;99.90;;;;;;4882375;29;20063;-84
2022/01/31 02:17:10;;;;;;;32.10;5.00;;;8.50;99.90;;;;;;4882429;29;20040;-83
2022/01/31 02:19:36;;;;;;;31.23;6.20;;;6.10;99.90;;;;;;4887461;29;20091;-84
2022/01/31 02:22:02;;;;;;;28.13;4.50;;;6.00;99.90;;;;;;4882145;29;20088;-84
2022/01/31 02:24:30;;;;;;;31.25;5.10;;;5.50;99.90;;;;;;4866719;29;20055;-84
2022/01/31 02:26:56;;;;;;;30.98;5.68;;;5.60;99.90;;;;;;4882433;29;20041;-84
2022/01/31 02:29:22;;;;;;;32.05;5.18;;;10.00;99.90;;;;;;4898290;29;20052;-84
2022/01/31 02:31:49;;;;;;;26.63;5.15;;;7.70;99.90;;;;;;4881642;29;20045;-84
2022/01/31 02:34:16;;;;;;;35.03;5.47;;;6.10;99.90;;;;;;4897932;29;20421;-84
2022/01/31 02:36:42;;;;;;;26.45;4.97;;;9.60;99.90;;;;;;4897597;29;20052;-84
2022/01/31 02:39:09;;;;;;;26.55;6.05;;;9.00;99.90;;;;;;4878480;29;20491;-84
2022/01/31 02:41:44;;;;;;;25.70;4.53;;;6.30;99.90;;;;;;4877574;29;20049;-84
2022/01/31 02:44:15;;;;;;;30.75;6.13;;;8.20;99.90;;;;;;4880967;29;20045;-84
2022/01/31 02:46:49;;;;;;;19.95;4.57;;;10.80;99.90;;;;;;4878658;29;20049;-83
2022/01/31 02:49:17;;;;;;;25.42;5.15;;;8.60;99.90;;;;;;4878543;29;20157;-83
2022/01/31 02:51:48;;;;;;;21.40;4.47;;;7.40;99.90;;;;;;4878543;29;20056;-84
2022/01/31 02:54:14;;;;;;;21.67;4.10;;;9.70;99.90;;;;;;4878188;29;20053;-84
2022/01/31 02:56:40;;;;;;;25.23;4.88;;;6.60;99.90;;;;;;4878884;29;20409;-84
2022/01/31 02:59:06;;;;;;;22.42;4.15;;;8.60;99.90;;;;;;4877781;29;20047;-84
2022/01/31 03:01:36;;;;;;;24.92;4.53;;;8.70;99.90;;;;;;4878900;29;20076;-83
2022/01/31 03:04:03;;;;;;;22.27;4.50;;;7.70;99.90;;;;;;4877961;29;20064;-84
2022/01/31 03:06:29;;;;;;;18.65;4.05;;;8.40;99.90;;;;;;4862793;29;20518;-84
2022/01/31 03:08:54;;;;;;;22.65;4.63;;;8.40;99.90;;;;;;4878086;29;20073;-84
2022/01/31 03:11:20;;;;;;;32.03;5.68;;;6.80;99.90;;;;;;4878308;29;20104;-84
2022/01/31 03:13:46;;;;;;;25.60;4.05;;;8.30;99.90;;;;;;4893784;29;20100;-84
2022/01/31 03:16:11;;;;;;;26.80;4.50;;;8.60;99.90;;;;;;4888639;29;20486;-84
2022/01/31 03:18:37;;;;;;;28.05;4.47;;;8.20;99.90;;;;;;4877949;29;20501;-84
2022/01/31 03:21:03;;;;;;;25.30;4.65;;;8.60;99.90;;;;;;4878033;29;20084;-87
2022/01/31 03:23:29;;;;;;;27.17;5.10;;;10.00;99.90;;;;;;4877689;29;20079;-84
2022/01/31 03:25:54;;;;;;;27.80;4.78;;;6.70;99.90;;;;;;4877931;29;20128;-84
2022/01/31 03:28:20;;;;;;;26.58;4.47;;;8.10;99.90;;;;;;4877729;29;20060;-85
2022/01/31 03:30:45;;;;;;;23.15;3.50;;;9.00;99.90;;;;;;4877948;29;20049;-84
2022/01/31 03:33:11;;;;;;;29.63;5.45;;;8.20;99.90;;;;;;4877573;29;20064;-84
2022/01/31 03:35:37;;;;;;;21.80;4.25;;;9.70;99.90;;;;;;4877381;29;20120;-84
2022/01/31 03:38:03;;;;;;;34.30;5.10;;;6.90;99.90;;;;;;4877003;29;20041;-85
2022/01/31 03:40:28;;;;;;;27.13;4.93;;;9.70;99.90;;;;;;4877780;29;20088;-85
2022/01/31 03:42:54;;;;;;;29.65;4.53;;;8.10;99.90;;;;;;4877597;29;20502;-85
2022/01/31 03:45:20;;;;;;;26.92;6.57;;;9.00;99.90;;;;;;4877672;29;20052;-84
2022/01/31 03:47:46;;;;;;;24.88;4.38;;;7.10;99.90;;;;;;4877587;29;20807;-84
2022/01/31 03:50:15;;;;;;;35.88;4.82;;;8.20;99.90;;;;;;4877609;29;20045;-84
2022/01/31 03:52:42;;;;;;;28.95;5.03;;;8.30;99.90;;;;;;4877382;29;20664;-84
2022/01/31 03:55:09;;;;;;;23.38;4.78;;;7.00;99.90;;;;;;4875787;29;20045;-84
2022/01/31 03:57:35;;;;;;;30.85;4.90;;;8.10;99.90;;;;;;4895795;29;20049;-84
2022/01/31 04:00:04;;;;;;;22.70;3.25;;;7.50;99.90;;;;;;4896416;29;20406;-84
2022/01/31 04:02:30;;;;;;;35.03;4.68;;;8.20;99.90;;;;;;4895983;29;20056;-84
2022/01/31 04:04:55;;;;;;;30.40;4.60;;;7.50;99.90;;;;;;4896237;29;20074;-85
2022/01/31 04:07:21;;;;;;;26.13;5.55;;;6.40;99.90;;;;;;4882668;29;20049;-84
2022/01/31 04:09:47;;;;;;;43.00;7.63;;;8.10;99.90;;;;;;4877846;29;20049;-84
2022/01/31 04:12:12;;;;;;;36.22;5.70;;;6.50;99.90;;;;;;4896424;29;20056;-85
2022/01/31 04:14:38;;;;;;;21.90;4.60;;;7.80;99.90;;;;;;4896190;29;20073;-84
2022/01/31 04:17:08;;;;;;;30.50;5.07;;;7.30;99.90;;;;;;4883381;29;20104;-85
2022/01/31 04:19:33;;;;;;;23.35;3.28;;;8.80;99.90;;;;;;4877247;29;20053;-84
2022/01/31 04:21:59;;;;;;;20.85;3.33;;;5.80;99.90;;;;;;4877253;29;20049;-84
2022/01/31 04:24:31;;;;;;;29.15;3.90;;;8.80;99.90;;;;;;4877104;29;20136;-84
2022/01/31 04:26:59;;;;;;;21.70;3.50;;;5.20;99.90;;;;;;4877145;29;20053;-84
2022/01/31 04:29:29;;;;;;;21.00;3.05;;;7.20;99.90;;;;;;4892993;29;20109;-84
2022/01/31 04:31:55;;;;;;;19.80;3.00;;;6.80;99.90;;;;;;4877504;29;20513;-84
2022/01/31 04:34:21;;;;;;;13.73;2.45;;;7.70;99.90;;;;;;4876957;29;20100;-84
2022/01/31 04:36:47;;;;;;;22.65;2.97;;;6.70;99.90;;;;;;4893139;29;20446;-84
2022/01/31 04:39:17;;;;;;;18.02;2.97;;;5.90;99.90;;;;;;4872827;29;20049;-84
2022/01/31 04:41:43;;;;;;;19.27;3.38;;;5.20;99.90;;;;;;4859161;29;20041;-84
2022/01/31 04:44:10;;;;;;;20.55;2.65;;;6.20;99.90;;;;;;4861216;29;20056;-84
2022/01/31 04:46:36;;;;;;;18.15;2.75;;;8.30;99.90;;;;;;4881845;29;20045;-84
2022/01/31 04:49:01;;;;;;;20.98;3.17;;;5.30;99.90;;;;;;4895792;29;20056;-84
2022/01/31 04:51:27;;;;;;;21.40;3.58;;;8.60;99.90;;;;;;4877757;29;20053;-84
2022/01/31 04:53:52;;;;;;;23.40;3.80;;;6.30;99.90;;;;;;4876632;29;20097;-84
2022/01/31 04:56:18;;;;;;;13.85;2.47;;;7.90;99.90;;;;;;4861878;29;20045;-84
2022/01/31 04:58:44;;;;;;;13.98;2.63;;;9.50;99.90;;;;;;4877215;29;20490;-83
2022/01/31 05:01:10;;;;;;;13.35;2.97;;;9.50;99.90;;;;;;4877038;29;20057;-84
2022/01/31 05:03:36;;;;;;;17.25;2.90;;;5.70;99.90;;;;;;4876858;29;20037;-83
2022/01/31 05:06:02;;;;;;;22.77;3.58;;;7.90;99.90;;;;;;4876775;29;20064;-83
2022/01/31 05:08:29;;;;;;;26.73;4.00;;;6.90;99.90;;;;;;4876982;29;20421;-84
2022/01/31 05:10:55;;;;;;;38.47;5.05;;;6.20;99.90;;;;;;4877104;29;20125;-84
2022/01/31 05:13:21;;;;;;;31.67;4.47;;;8.70;99.90;;;;;;4861716;29;20076;-84
2022/01/31 05:15:47;;;;;;;27.52;3.63;;;10.40;99.90;;;;;;4878161;29;20487;-84
2022/01/31 05:18:14;;;;;;;13.32;3.28;;;7.20;99.90;;;;;;4895631;29;20421;-84
2022/01/31 05:20:41;;;;;;;16.55;3.25;;;6.80;99.90;;;;;;4899061;29;20045;-83
2022/01/31 05:23:08;;;;;;;15.63;2.97;;;8.00;99.90;;;;;;4898768;29;20087;-84
2022/01/31 05:25:35;;;;;;;15.60;2.42;;;8.30;99.90;;;;;;4898983;29;20052;-84
2022/01/31 05:28:01;;;;;;;19.60;3.22;;;8.10;99.90;;;;;;4883484;29;20079;-84
2022/01/31 05:30:27;;;;;;;22.80;3.10;;;8.90;99.90;;;;;;4899138;29;20447;-84
2022/01/31 05:32:53;;;;;;;15.05;3.47;;;7.10;99.90;;;;;;4887507;29;20109;-84
2022/01/31 05:35:18;;;;;;;14.68;3.33;;;8.20;99.90;;;;;;4876047;29;20049;-84
2022/01/31 05:37:44;;;;;;;19.23;3.72;;;8.80;99.90;;;;;;4876978;29;20080;-83
2022/01/31 05:40:11;;;;;;;14.25;3.00;;;8.10;99.90;;;;;;4884384;29;20494;-83
2022/01/31 05:42:37;;;;;;;15.20;2.53;;;6.80;99.90;;;;;;4898621;29;20051;-84
2022/01/31 05:45:03;;;;;;;19.40;3.63;;;8.20;99.90;;;;;;4898678;29;20048;-83
2022/01/31 05:47:28;;;;;;;17.13;3.22;;;6.10;99.90;;;;;;4899620;29;20556;-83
2022/01/31 05:49:54;;;;;;;20.23;3.08;;;5.40;99.90;;;;;;4898604;29;20040;-84
2022/01/31 05:52:20;;;;;;;14.50;2.88;;;5.70;99.90;;;;;;4880004;29;20073;-84
2022/01/31 05:54:46;;;;;;;15.35;3.10;;;9.40;99.90;;;;;;4879848;29;20045;-84
2022/01/31 05:57:12;;;;;;;17.05;3.33;;;7.80;99.90;;;;;;4866717;29;20055;-84
2022/01/31 05:59:39;;;;;;;16.98;2.60;;;6.70;99.90;;;;;;4872474;29;20052;-83
2022/01/31 06:02:05;;;;;;;15.50;3.03;;;5.60;99.90;;;;;;4898456;29;20087;-83
2022/01/31 06:04:31;;;;;;;29.17;3.88;;;6.00;99.90;;;;;;4898051;29;20147;-83
2022/01/31 06:06:58;;;;;;;24.08;3.95;;;5.40;99.90;;;;;;4888868;29;20049;-83
2022/01/31 06:09:26;;;;;;;16.23;3.35;;;7.60;99.90;;;;;;4879373;29;20052;-84
2022/01/31 06:11:52;;;;;;;20.25;3.17;;;7.50;99.90;;;;;;4879523;29;20116;-83
2022/01/31 06:14:17;;;;;;;33.35;5.30;;;8.80;99.90;;;;;;4879311;29;20049;-83
2022/01/31 06:16:43;;;;;;;24.13;3.20;;;5.90;99.90;;;;;;4879513;29;20041;-83
2022/01/31 06:19:10;;;;;;;22.65;4.05;;;6.00;99.90;;;;;;4879101;29;20049;-83
2022/01/31 06:21:35;;;;;;;24.88;3.88;;;7.20;99.90;;;;;;4879337;29;20062;-83
2022/01/31 06:24:01;;;;;;;30.02;5.07;;;8.40;99.90;;;;;;4879277;29;20164;-83
2022/01/31 06:26:28;;;;;;;23.85;5.07;;;7.70;99.90;;;;;;4879117;29;20084;-83
2022/01/31 06:28:54;;;;;;;34.92;4.85;;;8.50;99.90;;;;;;4878864;29;20045;-83
2022/01/31 06:31:20;;;;;;;29.00;4.47;;;6.70;99.90;;;;;;4879062;29;20053;-83
2022/01/31 06:33:45;;;;;;;22.00;5.28;;;6.60;99.90;;;;;;4879251;29;20041;-83
2022/01/31 06:36:11;;;;;;;19.90;4.28;;;6.10;99.90;;;;;;4881948;29;20088;-83
2022/01/31 06:38:38;;;;;;;25.50;3.80;;;7.70;99.90;;;;;;4881946;29;20053;-83
2022/01/31 06:41:05;;;;;;;26.35;4.28;;;8.30;99.90;;;;;;4866746;29;20128;-83
2022/01/31 06:43:30;;;;;;;24.73;4.93;;;8.30;99.90;;;;;;4897414;29;20532;-83
2022/01/31 06:45:56;;;;;;;25.73;4.13;;;6.20;99.90;;;;;;4869753;29;20131;-83
2022/01/31 06:48:22;;;;;;;31.23;5.82;;;8.70;99.90;;;;;;4896300;29;20523;-83
2022/01/31 06:50:47;;;;;;;22.08;4.93;;;8.60;99.90;;;;;;4900875;29;20453;-83
2022/01/31 06:53:16;;;;;;;29.70;5.05;;;8.90;99.90;;;;;;4900613;29;20087;-83
2022/01/31 06:55:41;;;;;;;24.33;4.68;;;6.20;99.90;;;;;;4902593;29;20131;-83
2022/01/31 06:58:07;;;;;;;29.00;4.60;;;5.70;99.90;;;;;;4900320;29;20572;-83
2022/01/31 07:00:33;;;;;;;30.95;6.43;;;7.80;99.90;;;;;;4901191;29;20413;-83
2022/01/31 07:03:00;;;;;;;32.28;4.70;;;8.90;99.90;;;;;;4884813;29;20041;-83
2022/01/31 07:05:26;;;;;;;29.48;5.28;;;10.50;99.90;;;;;;4881012;29;20084;-84
2022/01/31 07:07:52;;;;;;;20.40;4.75;;;11.00;99.90;;;;;;4862536;29;20049;-84
2022/01/31 07:10:17;;;;;;;20.75;5.60;;;5.60;99.90;;;;;;4876525;29;20041;-83
2022/01/31 07:12:51;;;;;;;23.02;5.95;;;9.80;99.90;;;;;;4866955;29;20052;-86
2022/01/31 07:15:17;;;;;;;16.58;4.38;;;7.50;99.90;;;;;;4899709;29;20056;-84
2022/01/31 07:17:44;;;;;;;20.08;5.05;;;6.70;99.90;;;;;;4885301;29;20052;-84
2022/01/31 07:20:19;;;;;;;16.65;4.50;;;10.90;99.90;;;;;;4877250;29;20458;-85
2022/01/31 07:22:51;;;;;;;21.45;4.30;;;9.30;99.90;;;;;;4880249;29;20059;-82
2022/01/31 07:25:34;;;;;;;21.92;4.22;;;7.80;99.90;;;;;;4882345;29;20560;-84
2022/01/31 07:28:03;;;;;;;24.98;4.35;;;8.40;99.90;;;;;;4868366;29;20044;-85
2022/01/31 07:30:29;;;;;;;25.70;5.15;;;9.50;99.90;;;;;;4879123;29;20127;-82
2022/01/31 07:32:55;;;;;;;28.98;5.63;;;7.20;99.90;;;;;;4880558;29;20139;-86
2022/01/31 07:35:21;;;;;;;29.63;5.57;;;10.50;99.90;;;;;;4880868;29;20068;-84
2022/01/31 07:37:46;;;;;;;34.42;6.30;;;7.50;99.90;;;;;;4895707;29;20040;-85
2022/01/31 07:40:13;;;;;;;25.55;4.88;;;9.40;99.90;;;;;;4873497;29;20041;-84
2022/01/31 07:42:38;;;;;;;28.17;4.45;;;6.50;99.90;;;;;;4884299;29;20172;-85
2022/01/31 07:45:05;;;;;;;21.27;4.38;;;10.10;99.90;;;;;;4879166;29;20123;-83
2022/01/31 07:47:31;;;;;;;17.17;3.47;;;7.90;99.90;;;;;;4886710;29;20052;-85
2022/01/31 07:49:57;;;;;;;25.88;3.83;;;9.10;99.90;;;;;;4878805;29;20390;-86
2022/01/31 07:52:23;;;;;;;14.48;3.67;;;7.20;99.90;;;;;;4875750;29;20132;-88
2022/01/31 07:54:54;;;;;;;10.23;3.35;;;8.30;99.90;;;;;;4879795;29;20117;-87
2022/01/31 07:57:23;;;;;;;19.77;4.13;;;9.10;99.90;;;;;;4895918;29;20386;-87
2022/01/31 07:59:49;;;;;;;13.70;3.15;;;9.80;99.90;;;;;;4880647;29;20048;-89
2022/01/31 08:02:17;;;;;;;17.70;3.40;;;8.50;99.90;;;;;;4880379;29;20408;-85
2022/01/31 08:04:43;;;;;;;12.35;3.03;;;7.40;99.90;;;;;;4880051;29;20044;-84
2022/01/31 08:07:08;;;;;;;18.60;3.38;;;9.10;99.90;;;;;;4867176;29;20052;-84
2022/01/31 08:09:34;;;;;;;16.00;2.42;;;7.70;99.90;;;;;;4881125;29;20048;-85
2022/01/31 08:12:00;;;;;;;10.45;2.35;;;10.50;99.90;;;;;;4880990;29;20056;-87
2022/01/31 08:14:28;;;;;;;18.45;2.58;;;7.10;99.90;;;;;;4864746;29;20442;-86
2022/01/31 08:16:53;;;;;;;18.70;3.08;;;9.00;99.90;;;;;;4880006;29;20053;-86
2022/01/31 08:19:19;;;;;;;13.63;2.88;;;7.90;99.90;;;;;;4880472;29;20063;-88
2022/01/31 08:21:47;;;;;;;9.50;2.45;;;6.30;99.90;;;;;;4865280;29;20514;-88
2022/01/31 08:24:13;;;;;;;14.13;2.55;;;8.70;99.90;;;;;;4880676;29;20119;-87
2022/01/31 08:26:39;;;;;;;12.32;2.22;;;8.80;99.90;;;;;;4880877;29;20132;-88
2022/01/31 08:29:20;;;;;;;21.23;3.90;;;8.40;99.90;;;;;;4880777;29;20053;-89
2022/01/31 08:31:47;;;;;;;12.90;2.53;;;6.50;99.90;;;;;;4877588;29;20049;-88
2022/01/31 08:36:42;;;;;;;14.93;3.55;;;8.00;99.90;;;;;;4876702;29;20136;-87
2022/01/31 08:39:11;;;;;;;22.88;2.97;;;8.90;99.90;;;;;;4873678;29;20084;-86
2022/01/31 08:41:41;;;;;;;15.07;2.78;;;9.10;99.90;;;;;;4873179;29;20553;-86
2022/01/31 08:44:09;;;;;;;27.05;3.08;;;9.00;99.90;;;;;;4897574;29;20053;-87
2022/01/31 08:46:39;;;;;;;29.67;4.45;;;5.90;99.90;;;;;;4873105;29;20120;-83
2022/01/31 08:49:06;;;;;;;20.65;4.03;;;7.00;99.90;;;;;;4879567;29;20070;-85
2022/01/31 08:51:36;;;;;;;21.33;3.78;;;11.20;99.90;;;;;;4879189;29;20049;-86
2022/01/31 08:54:06;;;;;;;13.23;3.20;;;9.20;99.90;;;;;;4877261;29;20073;-85
2022/01/31 08:56:35;;;;;;;12.50;2.65;;;7.70;99.90;;;;;;4878362;29;20048;-85
2022/01/31 08:59:04;;;;;;;19.75;3.15;;;10.60;99.90;;;;;;4877944;29;20494;-86
2022/01/31 09:01:35;;;;;;;9.50;2.22;;;9.30;99.90;;;;;;4880126;29;20722;-86
2022/01/31 09:04:04;;;;;;;8.13;1.92;;;7.30;99.90;;;;;;4879753;29;20046;-86
2022/01/31 09:06:32;;;;;;;5.03;2.17;;;8.50;99.90;;;;;;4861816;29;20073;-85
2022/01/31 09:09:00;;;;;;;5.30;1.40;;;9.90;99.90;;;;;;4863965;29;20084;-85
2022/01/31 09:11:26;;;;;;;10.43;2.28;;;6.00;99.90;;;;;;4876487;29;20045;-85
2022/01/31 09:13:52;;;;;;;11.65;1.92;;;8.80;99.90;;;;;;4896057;29;20071;-85
2022/01/31 09:16:18;;;;;;;7.18;2.13;;;7.20;99.90;;;;;;4862446;29;20052;-85
2022/01/31 09:18:44;;;;;;;15.35;1.92;;;6.30;99.90;;;;;;4892716;29;20063;-85
2022/01/31 09:21:10;;;;;;;19.92;2.13;;;8.00;99.90;;;;;;4879567;29;20057;-86
2022/01/31 09:23:37;;;;;;;13.50;2.90;;;6.30;99.90;;;;;;4877439;29;20053;-86
2022/01/31 09:26:04;;;;;;;11.27;2.10;;;6.60;99.90;;;;;;4872627;29;20484;-87
2022/01/31 09:28:30;;;;;;;14.27;2.15;;;7.20;99.90;;;;;;4893355;29;20387;-86
2022/01/31 09:30:56;;;;;;;12.13;2.50;;;6.70;99.90;;;;;;4879433;29;20053;-84
2022/01/31 09:33:25;;;;;;;13.23;1.77;;;8.70;99.90;;;;;;4864552;29;20064;-82
2022/01/31 09:35:51;;;;;;;10.07;1.90;;;9.90;99.90;;;;;;4879747;29;20068;-85
2022/01/31 09:38:19;;;;;;;7.30;1.50;;;9.10;99.90;;;;;;4881826;29;20045;-85
2022/01/31 09:40:47;;;;;;;6.40;1.70;;;4.70;99.90;;;;;;4888716;29;20072;-84
2022/01/31 09:45:58;;;;;;;11.48;2.72;;;6.40;99.90;;;;;;4864518;29;20053;-90
2022/01/31 09:51:08;;;;;;;9.80;1.63;;;5.60;99.90;;;;;;4879215;29;20049;-82
2022/01/31 09:53:36;;;;;;;;;;;4.50;99.90;;;;;;4879579;29;20053;-82
2022/01/31 09:56:02;;;;;;;8.05;1.48;;;6.00;99.90;;;;;;4879657;29;20407;-86
2022/01/31 09:58:29;;;;;;;6.60;1.50;;;6.70;99.90;;;;;;4882433;29;20509;-83
2022/01/31 10:01:08;;;;;;;12.18;2.17;;;9.40;99.90;;;;;;4879336;29;20513;-83
2022/01/31 10:03:47;;;;;;;20.33;3.92;;;4.30;99.90;;;;;;4873590;29;20077;-83
2022/01/31 10:06:22;;;;;;;33.03;7.18;;;9.00;99.90;;;;;;4879207;29;20070;-84
2022/01/31 10:08:58;;;;;;;24.27;4.97;;;8.50;99.90;;;;;;4874186;29;20037;-83
2022/01/31 10:11:28;;;;;;;26.25;5.38;;;6.00;99.90;;;;;;4878542;29;20531;-84
2022/01/31 10:16:51;;;;;;;28.05;5.72;;;10.60;99.90;;;;;;4879829;29;20656;-87
2022/01/31 10:19:17;;;;;;;34.58;6.30;;;5.10;99.90;;;;;;4879134;29;20066;-84
2022/01/31 10:21:59;;;;;;;30.27;5.88;;;5.80;99.90;;;;;;4869937;29;20533;-84
2022/01/31 10:24:27;;;;;;;31.98;5.20;;;9.80;99.90;;;;;;4863702;29;20421;-83
2022/01/31 10:26:53;;;;;;;34.85;6.85;;;10.00;99.90;;;;;;4890965;29;20140;-85
2022/01/31 10:29:23;;;;;;;28.98;5.90;;;10.60;99.90;;;;;;4878993;29;20045;-87
2022/01/31 10:31:54;;;;;;;30.92;5.30;;;10.60;99.90;;;;;;4863432;29;20550;-86
2022/01/31 10:34:23;;;;;;;30.17;6.68;;;5.90;99.90;;;;;;4884092;29;20084;-86
2022/01/31 10:36:49;;;;;;;24.98;5.40;;;9.00;99.90;;;;;;4883275;29;20068;-88
2022/01/31 10:43:24;;;;;;;25.80;5.50;;;10.40;99.90;;;;;;4866270;29;20100;-83
2022/01/31 10:50:46;;;;;;;31.27;6.28;;;10.80;99.90;;;;;;4871507;29;20518;-86
2022/01/31 10:53:12;;;;;;;29.10;5.60;;;8.00;99.90;;;;;;4875400;29;20049;-86
2022/01/31 10:55:38;;;;;;;32.72;7.28;;;10.50;99.90;;;;;;4862874;29;20048;-87
2022/01/31 10:58:07;;;;;;;24.38;5.10;;;11.20;99.90;;;;;;4881434;29;20060;-85
2022/01/31 11:00:36;;;;;;;37.65;5.57;;;7.10;99.90;;;;;;4878799;29;20056;-83
2022/01/31 11:03:32;;;;;;;45.80;6.90;;;9.60;99.90;;;;;;4891497;29;20773;-85
2022/01/31 11:06:01;;;;;;;38.83;5.25;;;10.80;99.90;;;;;;4873841;29;20045;-83
2022/01/31 11:08:28;;;;;;;28.73;5.18;;;5.80;99.90;;;;;;4879086;29;20052;-86
2022/01/31 11:10:58;;;;;;;29.77;4.78;;;10.00;99.90;;;;;;4901000;29;20049;-86
2022/01/31 11:13:26;;;;;;;25.33;5.65;;;7.00;99.90;;;;;;4877929;29;20144;-87
2022/01/31 11:15:56;;;;;;;45.20;7.63;;;10.50;99.90;;;;;;4861286;29;20049;-87
2022/01/31 11:18:23;;;;;;;27.63;6.63;;;7.00;99.90;;;;;;4877868;29;20057;-85
2022/01/31 11:21:09;;;;;;;41.88;5.97;;;6.10;99.90;;;;;;4862256;29;20048;-86
2022/01/31 11:23:39;;;;;;;32.03;6.80;;;6.60;99.90;;;;;;4864493;29;20053;-86
2022/01/31 11:26:07;;;;;;;29.17;5.05;;;10.60;99.90;;;;;;4871712;29;20565;-85
2022/01/31 11:28:35;;;;;;;41.47;6.00;;;12.70;99.90;;;;;;4884179;29;20067;-86
2022/01/31 11:31:02;;;;;;;34.95;5.72;;;11.10;99.90;;;;;;4869683;29;20101;-86
2022/01/31 11:33:29;;;;;;;43.72;6.30;;;7.30;99.90;;;;;;4897376;29;20057;-86
2022/01/31 11:35:55;;;;;;;42.03;6.10;;;12.10;99.90;;;;;;4899565;29;20052;-83
2022/01/31 11:38:22;;;;;;;28.88;4.78;;;10.60;99.90;;;;;;4868147;29;20053;-85
2022/01/31 11:40:49;;;;;;;26.13;4.75;;;7.20;99.90;;;;;;4880560;29;20127;-85
2022/01/31 11:43:16;;;;;;;28.13;4.90;;;10.60;99.90;;;;;;4880534;29;20037;-83
2022/01/31 11:45:45;;;;;;;36.70;4.45;;;7.10;99.90;;;;;;4880772;29;20497;-86
2022/01/31 11:48:11;;;;;;;24.70;3.95;;;9.40;99.90;;;;;;4903299;29;20096;-86
2022/01/31 11:50:45;;;;;;;24.08;4.90;;;7.00;99.90;;;;;;4880860;29;20112;-86
2022/01/31 11:53:11;;;;;;;37.92;5.80;;;7.30;99.90;;;;;;4876363;29;20053;-86
2022/01/31 11:55:38;;;;;;;31.30;4.97;;;11.00;99.90;;;;;;4887442;29;20051;-85
2022/01/31 11:58:07;;;;;;;32.83;4.70;;;7.40;99.90;;;;;;4885133;29;20409;-88
2022/01/31 12:00:37;;;;;;;43.00;5.32;;;11.00;99.90;;;;;;4864439;29;20045;-85
2022/01/31 12:03:06;;;;;;;24.05;5.45;;;7.30;99.90;;;;;;4888217;29;20056;-86
2022/01/31 12:05:36;;;;;;;22.50;3.97;;;7.40;99.90;;;;;;4895661;29;20082;-85
2022/01/31 12:08:14;;;;;;;24.27;5.65;;;12.50;99.90;;;;;;4892313;29;20498;-85
2022/01/31 12:10:46;;;;;;;33.47;6.05;;;12.70;99.90;;;;;;4868400;29;20080;-85
2022/01/31 12:13:37;;;;;;;29.38;6.40;;;11.60;99.90;;;;;;4865161;29;20048;-85
2022/01/31 12:16:15;;;;;;;39.08;6.80;;;7.50;99.90;;;;;;4874421;29;20055;-85
2022/01/31 12:18:54;;;;;;;39.97;6.80;;;10.20;99.90;;;;;;4863490;29;20049;-84
2022/01/31 12:24:27;;;;;;;43.03;7.03;;;11.90;99.90;;;;;;4892870;29;20064;-87
2022/01/31 12:26:56;;;;;;;31.95;6.10;;;6.10;99.90;;;;;;4865690;29;20049;-86
2022/01/31 12:29:25;;;;;;;22.92;5.28;;;10.70;99.90;;;;;;4884091;29;20112;-83
2022/01/31 12:31:54;;;;;;;30.02;5.07;;;7.30;99.90;;;;;;4880614;29;20055;-83
2022/01/31 12:34:20;;;;;;;28.73;5.18;;;6.90;99.90;;;;;;4869219;29;20061;-84
2022/01/31 12:36:50;;;;;;;34.20;5.35;;;10.30;99.90;;;;;;4885133;29;20509;-84
2022/01/31 12:39:39;;;;;;;32.65;5.22;;;10.60;99.90;;;;;;4891997;29;20044;-85
2022/01/31 12:42:46;;;;;;;36.78;6.68;;;9.40;99.90;;;;;;4878845;29;20415;-86
2022/01/31 12:45:19;;;;;;;32.80;5.90;;;10.60;99.90;;;;;;4870054;29;20043;-84
2022/01/31 12:48:06;;;;;;;34.17;5.50;;;8.00;99.90;;;;;;4893501;29;20053;-87
2022/01/31 12:50:34;;;;;;;35.35;6.10;;;6.70;99.90;;;;;;4861166;29;20052;-84
2022/01/31 12:53:05;;;;;;;36.15;6.20;;;10.40;99.90;;;;;;4878125;29;20085;-85
2022/01/31 12:55:32;;;;;;;46.17;6.32;;;10.30;99.90;;;;;;4880225;29;20048;-84
2022/01/31 12:57:58;;;;;;;43.03;5.88;;;12.10;99.90;;;;;;4876660;29;20057;-84
2022/01/31 13:00:38;;;;;;;43.15;6.05;;;8.10;99.90;;;;;;4895026;29;20053;-84
2022/01/31 13:03:05;;;;;;;30.90;5.63;;;8.90;99.90;;;;;;4866179;29;20045;-83
2022/01/31 13:05:33;;;;;;;28.52;6.35;;;6.90;99.90;;;;;;4880403;29;20045;-85
2022/01/31 13:07:59;;;;;;;36.63;6.95;;;9.10;99.90;;;;;;4866657;29;20104;-85
2022/01/31 13:10:25;;;;;;;28.20;5.82;;;9.80;99.90;;;;;;4879855;29;20638;-86
2022/01/31 13:13:00;;;;;;;38.38;6.25;;;10.10;99.90;;;;;;4880182;29;20084;-86